Time;durP1;ratioP1;P1;durP2;ratioP2;P2;SDS_P1;SDS_P2;PMS_P1;PMS_P2;Temp;Humidity;BMP_temperature;BMP_pressure;BME280_temperature;BME280_humidity;BME280_pressure;Samples;Min_cycle;Max_cycle;Signal;HPM_P1;HPM_P2
2022/07/09 00:01:19;;;;;;;2.80;2.00;;;14.20;99.90;;;;;;5026529;28;20917;-53
2022/07/09 00:03:45;;;;;;;6.23;2.33;;;14.20;99.90;;;;;;5028584;28;20448;-53
2022/07/09 00:06:12;;;;;;;4.80;2.17;;;14.10;99.90;;;;;;5023505;28;20511;-51
2022/07/09 00:08:38;;;;;;;5.37;2.10;;;14.10;99.90;;;;;;5031810;28;20542;-52
2022/07/09 00:11:05;;;;;;;8.17;1.70;;;14.10;99.90;;;;;;5028800;28;20548;-52
2022/07/09 00:13:32;;;;;;;8.17;2.17;;;14.00;99.90;;;;;;5030197;28;20459;-54
2022/07/09 00:16:00;;;;;;;2.30;1.60;;;14.00;99.90;;;;;;5032885;28;20463;-53
2022/07/09 00:18:26;;;;;;;5.10;1.77;;;14.00;99.90;;;;;;5027084;28;20459;-53
2022/07/09 00:20:55;;;;;;;2.30;1.80;;;14.00;99.90;;;;;;5038385;28;20796;-54
2022/07/09 00:23:22;;;;;;;8.27;2.77;;;13.90;99.90;;;;;;5027061;28;21186;-52
2022/07/09 00:25:48;;;;;;;5.23;1.67;;;13.90;99.90;;;;;;5027322;28;20532;-53
2022/07/09 00:28:15;;;;;;;4.83;1.77;;;13.90;99.90;;;;;;5031855;28;20466;-53
2022/07/09 00:30:41;;;;;;;6.30;2.37;;;13.80;99.90;;;;;;5033100;28;20481;-52
2022/07/09 00:33:09;;;;;;;5.53;1.93;;;13.80;99.90;;;;;;5027646;28;20557;-53
2022/07/09 00:35:36;;;;;;;4.10;1.90;;;13.70;99.90;;;;;;5018400;28;20462;-53
2022/07/09 00:38:03;;;;;;;9.23;2.43;;;13.70;99.90;;;;;;5032314;28;20927;-52
2022/07/09 00:40:29;;;;;;;10.10;2.30;;;13.70;99.90;;;;;;5025325;28;20538;-53
2022/07/09 00:42:56;;;;;;;12.67;2.33;;;13.70;99.90;;;;;;5037331;28;20458;-52
2022/07/09 00:45:22;;;;;;;5.80;2.50;;;13.60;99.90;;;;;;5023642;28;20466;-53
2022/07/09 00:47:49;;;;;;;5.83;2.10;;;13.60;99.90;;;;;;5033680;28;20514;-52
2022/07/09 00:50:17;;;;;;;14.70;2.40;;;13.60;99.90;;;;;;5028333;28;20455;-53
2022/07/09 00:52:45;;;;;;;7.10;2.83;;;13.60;99.90;;;;;;5023303;28;20488;-52
2022/07/09 00:55:12;;;;;;;4.90;2.10;;;13.60;99.90;;;;;;5024605;28;21072;-52
2022/07/09 00:57:40;;;;;;;4.93;2.37;;;13.50;99.90;;;;;;5021768;28;20463;-53
2022/07/09 01:00:08;;;;;;;7.77;2.07;;;13.50;99.90;;;;;;5025968;28;20515;-52
2022/07/09 01:02:35;;;;;;;6.40;1.70;;;13.50;99.90;;;;;;5031989;28;20462;-53
2022/07/09 01:05:01;;;;;;;3.67;1.83;;;13.50;99.90;;;;;;5015667;28;20486;-52
2022/07/09 01:07:29;;;;;;;3.33;1.87;;;13.40;94.50;;;;;;5028315;28;20895;-53
2022/07/09 01:09:56;;;;;;;3.63;1.77;;;13.40;92.20;;;;;;5024463;28;20902;-54
2022/07/09 01:12:22;;;;;;;10.40;2.50;;;13.40;93.80;;;;;;5026052;28;20609;-52
2022/07/09 01:14:49;;;;;;;6.63;2.40;;;13.30;94.20;;;;;;5025118;28;20541;-53
2022/07/09 01:17:16;;;;;;;14.20;2.47;;;13.30;90.50;;;;;;5027022;28;20490;-53
2022/07/09 01:19:43;;;;;;;8.37;2.50;;;13.20;93.90;;;;;;5033420;28;20497;-52
2022/07/09 01:22:11;;;;;;;9.43;2.43;;;13.20;88.20;;;;;;5028491;28;20506;-53
2022/07/09 01:24:37;;;;;;;6.00;2.13;;;13.20;90.20;;;;;;5022190;28;20483;-53
2022/07/09 01:27:04;;;;;;;15.87;2.80;;;13.20;89.00;;;;;;5031745;28;20485;-53
2022/07/09 01:29:31;;;;;;;9.50;2.47;;;13.20;88.30;;;;;;5034272;28;20491;-53
2022/07/09 01:31:57;;;;;;;6.00;2.90;;;13.10;83.70;;;;;;5031066;28;20486;-52
2022/07/09 01:34:24;;;;;;;7.20;2.87;;;13.10;79.30;;;;;;5030666;28;20463;-52
2022/07/09 01:36:51;;;;;;;4.10;2.30;;;13.00;80.90;;;;;;5026735;28;20487;-52
2022/07/09 01:39:18;;;;;;;7.43;2.80;;;13.00;74.40;;;;;;5028448;28;20849;-51
2022/07/09 01:41:45;;;;;;;6.17;2.33;;;13.00;78.40;;;;;;5020075;28;20510;-51
2022/07/09 01:44:12;;;;;;;6.13;2.50;;;13.00;76.00;;;;;;5022709;28;20533;-50
2022/07/09 01:46:38;;;;;;;10.70;2.70;;;12.90;70.70;;;;;;5023867;28;21224;-52
2022/07/09 01:49:05;;;;;;;7.30;2.43;;;12.90;71.00;;;;;;5025951;28;20991;-52
2022/07/09 01:51:34;;;;;;;9.30;3.40;;;12.90;67.20;;;;;;5029197;28;20559;-51
2022/07/09 01:54:01;;;;;;;7.23;2.53;;;12.90;66.10;;;;;;5025745;28;20469;-52
2022/07/09 01:56:29;;;;;;;9.97;3.03;;;12.90;66.50;;;;;;5028328;28;20577;-52
2022/07/09 01:58:55;;;;;;;5.40;2.33;;;12.90;66.80;;;;;;5029910;28;20502;-51
2022/07/09 02:01:22;;;;;;;6.20;2.87;;;12.80;65.10;;;;;;5026317;28;20517;-51
2022/07/09 02:03:48;;;;;;;7.80;2.30;;;12.80;64.90;;;;;;5031015;28;20499;-51
2022/07/09 02:06:15;;;;;;;5.07;2.40;;;12.80;57.70;;;;;;5038767;28;20470;-51
2022/07/09 02:08:42;;;;;;;5.37;2.63;;;12.80;54.40;;;;;;5030558;28;20490;-52
2022/07/09 02:11:09;;;;;;;5.13;2.30;;;12.80;53.10;;;;;;5033146;28;20526;-52
2022/07/09 02:13:37;;;;;;;8.13;3.03;;;12.80;58.50;;;;;;5030388;28;20980;-51
2022/07/09 02:16:04;;;;;;;8.00;3.23;;;12.70;56.80;;;;;;5031725;28;20499;-52
2022/07/09 02:18:31;;;;;;;12.40;2.93;;;12.70;53.50;;;;;;5028204;28;20501;-51
2022/07/09 02:20:58;;;;;;;13.30;2.97;;;12.70;60.50;;;;;;5035292;28;20511;-51
2022/07/09 02:23:24;;;;;;;10.53;3.20;;;12.70;51.50;;;;;;5032096;28;20501;-52
2022/07/09 02:25:51;;;;;;;10.73;3.33;;;12.70;50.90;;;;;;5031621;28;20547;-51
2022/07/09 02:28:17;;;;;;;9.80;2.90;;;12.70;47.40;;;;;;5027674;28;20583;-51
2022/07/09 02:30:45;;;;;;;5.50;2.80;;;12.70;50.80;;;;;;5029591;28;20521;-52
2022/07/09 02:33:12;;;;;;;4.60;3.00;;;12.70;51.00;;;;;;5031516;28;20501;-51
2022/07/09 02:35:39;;;;;;;6.50;3.17;;;12.80;54.90;;;;;;5030165;28;20492;-51
2022/07/09 02:38:05;;;;;;;6.87;2.90;;;12.80;58.00;;;;;;5029500;28;20494;-51
2022/07/09 02:40:32;;;;;;;8.20;2.77;;;12.80;57.50;;;;;;5033932;28;20483;-51
2022/07/09 02:42:58;;;;;;;5.63;2.67;;;12.80;60.70;;;;;;5038113;28;20497;-52
2022/07/09 02:45:25;;;;;;;9.47;3.60;;;12.80;61.90;;;;;;5032425;28;20516;-51
2022/07/09 02:47:53;;;;;;;7.43;2.50;;;12.80;62.20;;;;;;5030706;28;20552;-52
2022/07/09 02:50:20;;;;;;;4.80;2.73;;;12.90;66.80;;;;;;5033554;28;20521;-51
2022/07/09 02:52:46;;;;;;;5.73;2.93;;;12.90;67.40;;;;;;5038448;28;20996;-51
2022/07/09 02:55:13;;;;;;;7.53;2.33;;;12.90;70.20;;;;;;5036833;28;20525;-52
2022/07/09 02:57:39;;;;;;;8.73;4.07;;;12.90;68.20;;;;;;5028576;28;20459;-52
2022/07/09 03:00:07;;;;;;;12.70;3.13;;;12.90;68.70;;;;;;5023567;28;20463;-52
2022/07/09 03:02:34;;;;;;;5.00;3.03;;;13.00;71.30;;;;;;5022952;28;20494;-52
2022/07/09 03:05:02;;;;;;;11.23;3.13;;;12.90;72.50;;;;;;5025815;28;20466;-52
2022/07/09 03:07:29;;;;;;;6.03;2.60;;;12.90;77.80;;;;;;5017167;28;20511;-52
2022/07/09 03:09:56;;;;;;;14.03;4.40;;;12.90;69.80;;;;;;5028395;28;20485;-52
2022/07/09 03:12:23;;;;;;;9.80;3.17;;;12.90;71.00;;;;;;5029188;28;20767;-51
2022/07/09 03:14:49;;;;;;;12.47;2.90;;;12.90;71.20;;;;;;5031211;28;20498;-51
2022/07/09 03:17:16;;;;;;;12.50;3.10;;;12.90;70.40;;;;;;5026976;28;20499;-50
2022/07/09 03:19:42;;;;;;;4.60;2.40;;;13.00;67.80;;;;;;5031139;28;20495;-52
2022/07/09 03:22:11;;;;;;;8.43;3.37;;;13.00;69.40;;;;;;5026390;28;20957;-53
2022/07/09 03:24:38;;;;;;;4.60;2.70;;;13.00;68.60;;;;;;5027263;28;20524;-52
2022/07/09 03:27:05;;;;;;;10.43;3.30;;;13.00;62.70;;;;;;5022456;28;20510;-52
2022/07/09 03:29:31;;;;;;;4.70;2.50;;;13.10;67.10;;;;;;5029812;28;20879;-51
2022/07/09 03:31:58;;;;;;;12.10;3.13;;;13.10;67.10;;;;;;5031659;28;20906;-51
2022/07/09 03:34:25;;;;;;;7.30;3.00;;;13.10;66.00;;;;;;5028965;28;20549;-51
2022/07/09 03:36:51;;;;;;;10.43;3.40;;;13.10;71.70;;;;;;5024946;28;20548;-53
2022/07/09 03:39:19;;;;;;;7.70;3.00;;;13.10;76.40;;;;;;5033038;28;20541;-53
2022/07/09 03:41:45;;;;;;;6.10;3.00;;;13.20;77.50;;;;;;5027922;28;20485;-53
2022/07/09 03:44:12;;;;;;;5.90;2.60;;;13.10;76.90;;;;;;5033488;28;20504;-53
2022/07/09 03:46:39;;;;;;;7.27;3.07;;;13.20;72.30;;;;;;5029680;28;20529;-52
2022/07/09 03:49:05;;;;;;;9.47;3.50;;;13.20;70.10;;;;;;5028515;28;20931;-53
2022/07/09 03:51:32;;;;;;;4.60;2.70;;;13.20;78.60;;;;;;5018710;28;20964;-53
2022/07/09 03:53:58;;;;;;;9.17;2.67;;;13.20;79.40;;;;;;5027984;28;20458;-53
2022/07/09 03:56:26;;;;;;;6.13;3.17;;;13.30;79.30;;;;;;5022378;28;20941;-53
2022/07/09 03:58:53;;;;;;;5.03;2.93;;;13.30;79.90;;;;;;5032464;28;20816;-53
2022/07/09 04:01:19;;;;;;;2.90;2.67;;;13.30;89.00;;;;;;5029640;28;20981;-53
2022/07/09 04:03:46;;;;;;;8.03;3.47;;;13.30;82.00;;;;;;5027615;28;20540;-53
2022/07/09 04:06:13;;;;;;;8.87;3.67;;;13.40;88.00;;;;;;5030718;28;20548;-53
2022/07/09 04:08:39;;;;;;;11.10;3.07;;;13.40;91.10;;;;;;5029391;28;20836;-52
2022/07/09 04:11:06;;;;;;;5.90;2.83;;;13.40;88.40;;;;;;5025536;28;20522;-55
2022/07/09 04:13:34;;;;;;;6.43;2.93;;;13.40;79.80;;;;;;5021781;28;20458;-53
2022/07/09 04:16:01;;;;;;;6.80;2.50;;;13.50;87.00;;;;;;5025365;28;20501;-54
2022/07/09 04:18:27;;;;;;;8.43;2.57;;;13.40;90.00;;;;;;5030522;28;20490;-52
2022/07/09 04:20:54;;;;;;;7.20;2.43;;;13.40;90.10;;;;;;5017649;28;20515;-54
2022/07/09 04:23:21;;;;;;;8.13;2.57;;;13.50;89.10;;;;;;5023858;28;20476;-52
2022/07/09 04:25:48;;;;;;;5.93;2.87;;;13.50;94.50;;;;;;5027333;28;20512;-52
2022/07/09 04:28:15;;;;;;;5.00;2.93;;;13.50;91.20;;;;;;5033234;28;20489;-52
2022/07/09 04:30:43;;;;;;;3.80;2.77;;;13.50;94.00;;;;;;5025635;28;20483;-53
2022/07/09 04:33:09;;;;;;;6.10;2.17;;;13.50;99.90;;;;;;5026943;28;20612;-53
2022/07/09 04:35:36;;;;;;;5.20;2.60;;;13.60;99.90;;;;;;5028067;28;20466;-53
2022/07/09 04:38:03;;;;;;;5.90;2.60;;;13.60;94.20;;;;;;5021584;28;20494;-53
2022/07/09 04:40:29;;;;;;;3.90;2.50;;;13.70;94.70;;;;;;5037208;28;20513;-54
2022/07/09 04:42:56;;;;;;;4.07;2.60;;;13.70;97.00;;;;;;5027719;28;20496;-54
2022/07/09 04:45:23;;;;;;;4.63;2.03;;;13.70;99.90;;;;;;5027427;28;21098;-54
2022/07/09 04:47:51;;;;;;;8.63;3.60;;;13.80;98.30;;;;;;5027788;28;20518;-52
2022/07/09 04:50:17;;;;;;;4.20;2.40;;;13.80;99.30;;;;;;5023700;28;20545;-53
2022/07/09 04:52:44;;;;;;;11.73;3.03;;;13.80;99.10;;;;;;5021882;28;20493;-52
2022/07/09 04:55:11;;;;;;;5.33;2.57;;;13.90;99.90;;;;;;5032540;28;20459;-50
2022/07/09 04:57:38;;;;;;;10.07;2.90;;;13.90;99.90;;;;;;5026436;28;20562;-52
2022/07/09 05:00:06;;;;;;;7.83;2.67;;;13.90;99.90;;;;;;5016908;28;20501;-51
2022/07/09 05:02:32;;;;;;;13.83;2.37;;;13.90;99.90;;;;;;5026675;28;20466;-52
2022/07/09 05:05:00;;;;;;;26.87;2.57;;;14.00;99.90;;;;;;5019164;28;20494;-51
2022/07/09 05:07:27;;;;;;;4.73;2.20;;;14.00;99.90;;;;;;5025144;28;20487;-51
2022/07/09 05:09:54;;;;;;;6.03;2.40;;;14.10;99.90;;;;;;5034274;28;20890;-52
2022/07/09 05:12:20;;;;;;;4.87;2.63;;;14.10;99.90;;;;;;5029971;28;20474;-51
2022/07/09 05:14:47;;;;;;;9.10;2.90;;;14.10;99.90;;;;;;5020662;28;20490;-51
2022/07/09 05:17:14;;;;;;;6.00;2.23;;;14.20;99.90;;;;;;5018207;28;20953;-51
2022/07/09 05:19:41;;;;;;;6.53;3.20;;;14.20;99.90;;;;;;5033806;28;20465;-52
2022/07/09 05:22:09;;;;;;;9.20;2.20;;;14.30;99.90;;;;;;5017970;28;20479;-52
2022/07/09 05:24:36;;;;;;;5.40;3.10;;;14.40;99.90;;;;;;5029162;28;20486;-52
2022/07/09 05:27:03;;;;;;;14.87;3.93;;;14.40;99.90;;;;;;5027985;28;20455;-53
2022/07/09 05:29:30;;;;;;;10.37;2.50;;;14.50;99.90;;;;;;5030744;28;20485;-52
2022/07/09 05:31:57;;;;;;;6.77;2.77;;;14.50;99.90;;;;;;5027017;28;20514;-53
2022/07/09 05:34:24;;;;;;;6.40;2.53;;;14.50;99.90;;;;;;5028964;28;20563;-53
2022/07/09 05:36:51;;;;;;;7.50;3.13;;;14.50;99.90;;;;;;5025683;28;20562;-53
2022/07/09 05:39:19;;;;;;;6.93;3.27;;;14.60;99.90;;;;;;5030803;28;20949;-54
2022/07/09 05:41:46;;;;;;;6.73;2.70;;;14.60;99.90;;;;;;5024007;28;20518;-53
2022/07/09 05:44:12;;;;;;;9.60;2.80;;;14.60;99.90;;;;;;5029240;28;20503;-53
2022/07/09 05:46:41;;;;;;;5.87;2.57;;;14.60;99.90;;;;;;5033760;28;20494;-52
2022/07/09 05:49:08;;;;;;;5.63;2.83;;;14.60;99.90;;;;;;5021034;28;21151;-53
2022/07/09 05:51:34;;;;;;;7.57;2.77;;;14.60;99.90;;;;;;5026506;28;20482;-53
2022/07/09 05:54:01;;;;;;;3.77;2.60;;;14.60;99.90;;;;;;5029372;28;20548;-54
2022/07/09 05:56:29;;;;;;;3.97;2.40;;;14.60;99.90;;;;;;5028567;28;20974;-53
2022/07/09 05:58:55;;;;;;;13.37;3.43;;;14.70;99.90;;;;;;5019631;28;20906;-52
2022/07/09 06:01:22;;;;;;;8.43;4.07;;;14.70;99.10;;;;;;5032992;28;21027;-53
2022/07/09 06:03:48;;;;;;;10.27;2.97;;;14.80;95.90;;;;;;5031316;28;20495;-52
2022/07/09 06:06:15;;;;;;;9.37;2.57;;;14.80;99.90;;;;;;5032321;28;20863;-52
2022/07/09 06:08:42;;;;;;;5.77;2.70;;;14.80;99.90;;;;;;5037510;28;20962;-53
2022/07/09 06:11:08;;;;;;;5.80;2.70;;;14.80;99.90;;;;;;5031918;28;20486;-53
2022/07/09 06:13:36;;;;;;;6.33;2.70;;;14.80;99.90;;;;;;5034657;28;20525;-54
2022/07/09 06:16:03;;;;;;;6.50;2.70;;;14.90;99.90;;;;;;5029318;28;20898;-53
2022/07/09 06:18:29;;;;;;;6.50;2.97;;;14.90;99.90;;;;;;5029986;28;20541;-53
2022/07/09 06:20:57;;;;;;;7.53;3.20;;;15.00;99.90;;;;;;5030493;28;20517;-53
2022/07/09 06:23:24;;;;;;;3.77;2.33;;;15.00;99.90;;;;;;5029080;28;20458;-53
2022/07/09 06:25:50;;;;;;;5.70;2.70;;;15.00;99.90;;;;;;5030267;28;20556;-53
2022/07/09 06:28:17;;;;;;;5.83;2.50;;;15.00;99.90;;;;;;5035349;28;21105;-53
2022/07/09 06:30:45;;;;;;;9.80;2.30;;;15.10;99.90;;;;;;5025500;28;20479;-53
2022/07/09 06:33:11;;;;;;;4.40;2.27;;;15.20;99.90;;;;;;5026455;28;21120;-53
2022/07/09 06:35:38;;;;;;;6.50;4.57;;;15.20;99.90;;;;;;5033587;28;20486;-53
2022/07/09 06:38:05;;;;;;;2.97;2.40;;;15.30;99.90;;;;;;5024578;28;20450;-53
2022/07/09 06:40:32;;;;;;;3.97;2.27;;;15.30;99.90;;;;;;5022991;28;20483;-53
2022/07/09 06:42:59;;;;;;;7.73;2.77;;;15.40;99.90;;;;;;5026101;28;20900;-53
2022/07/09 06:45:25;;;;;;;5.17;2.73;;;15.40;99.90;;;;;;5022137;28;20465;-53
2022/07/09 06:47:53;;;;;;;4.53;2.83;;;15.50;99.90;;;;;;5026361;28;20608;-54
2022/07/09 06:50:20;;;;;;;14.57;4.67;;;15.60;99.90;;;;;;5021991;28;20881;-54
2022/07/09 06:52:47;;;;;;;4.67;2.90;;;15.60;99.90;;;;;;5028707;28;20859;-52
2022/07/09 06:55:13;;;;;;;5.93;2.63;;;15.70;99.90;;;;;;5026601;28;20484;-54
2022/07/09 06:57:40;;;;;;;6.73;2.70;;;15.70;99.90;;;;;;5025594;28;20454;-52
2022/07/09 07:00:08;;;;;;;8.00;2.93;;;15.70;99.90;;;;;;5019982;28;20571;-53
2022/07/09 07:02:35;;;;;;;7.50;3.30;;;15.80;99.90;;;;;;5028550;28;20463;-52
2022/07/09 07:05:04;;;;;;;5.37;2.80;;;15.80;99.90;;;;;;5020219;28;21074;-53
2022/07/09 07:07:31;;;;;;;2.70;2.50;;;15.80;99.90;;;;;;5023827;28;20455;-53
2022/07/09 07:09:57;;;;;;;7.27;3.20;;;15.80;99.90;;;;;;5022890;28;20988;-54
2022/07/09 07:12:24;;;;;;;4.47;2.93;;;15.80;99.90;;;;;;5026681;28;20544;-53
2022/07/09 07:14:51;;;;;;;4.40;2.30;;;15.80;99.90;;;;;;5018988;28;20607;-54
2022/07/09 07:17:18;;;;;;;10.20;2.73;;;15.90;99.90;;;;;;5023015;28;20455;-54
2022/07/09 07:19:45;;;;;;;4.43;3.00;;;15.90;99.90;;;;;;5024552;28;20451;-52
2022/07/09 07:22:12;;;;;;;4.20;2.40;;;15.90;99.90;;;;;;5026970;28;20564;-54
2022/07/09 07:24:39;;;;;;;5.70;2.10;;;15.90;99.90;;;;;;5024328;28;20548;-53
2022/07/09 07:27:06;;;;;;;3.43;2.40;;;15.90;99.90;;;;;;5029946;28;20880;-54
2022/07/09 07:29:32;;;;;;;4.93;2.37;;;16.00;99.90;;;;;;5032496;28;20518;-53
2022/07/09 07:31:59;;;;;;;4.83;2.97;;;16.00;99.90;;;;;;5029756;28;20477;-52
2022/07/09 07:34:26;;;;;;;6.93;2.70;;;16.00;99.90;;;;;;5020031;28;20470;-53
2022/07/09 07:36:53;;;;;;;5.90;2.60;;;16.00;99.90;;;;;;5024521;28;20501;-54
2022/07/09 07:39:21;;;;;;;6.83;2.77;;;16.00;99.90;;;;;;5024827;28;20538;-53
2022/07/09 07:41:48;;;;;;;6.63;2.90;;;16.10;99.90;;;;;;5018309;28;20478;-52
2022/07/09 07:44:15;;;;;;;5.40;2.50;;;16.10;99.90;;;;;;5025097;28;20458;-54
2022/07/09 07:46:41;;;;;;;5.80;2.80;;;16.00;99.90;;;;;;5023447;28;20844;-53
2022/07/09 07:49:08;;;;;;;9.07;3.43;;;16.00;99.90;;;;;;5029526;28;20556;-53
2022/07/09 07:51:34;;;;;;;5.03;2.40;;;16.00;99.90;;;;;;5020976;28;20485;-51
2022/07/09 07:54:01;;;;;;;6.40;2.60;;;16.10;99.90;;;;;;5033913;23;21165;-53
2022/07/09 07:56:32;;;;;;;6.73;2.57;;;16.10;99.90;;;;;;5002385;28;20961;-52
2022/07/09 07:58:59;;;;;;;9.27;3.07;;;16.10;99.90;;;;;;4995520;28;20464;-53
2022/07/09 08:01:25;;;;;;;7.00;3.23;;;16.20;99.90;;;;;;4988756;28;20555;-52
2022/07/09 08:03:52;;;;;;;4.87;2.93;;;16.20;99.90;;;;;;4999192;28;20546;-52
2022/07/09 08:06:18;;;;;;;6.97;2.90;;;16.20;99.90;;;;;;5011704;28;20547;-54
2022/07/09 08:08:45;;;;;;;9.00;3.70;;;16.30;99.90;;;;;;5018783;28;20535;-53
2022/07/09 08:11:12;;;;;;;6.53;3.20;;;16.30;99.90;;;;;;5016511;28;21454;-53
2022/07/09 08:13:40;;;;;;;6.17;2.60;;;16.30;1.40;;;;;;5017851;28;20892;-53
2022/07/09 08:16:07;;;;;;;6.50;2.93;;;16.40;99.90;;;;;;5017754;28;20468;-53
2022/07/09 08:18:34;;;;;;;5.13;2.57;;;16.40;99.90;;;;;;5013783;28;21132;-53
2022/07/09 08:21:00;;;;;;;6.23;2.77;;;16.50;99.90;;;;;;5010464;28;21027;-52
2022/07/09 08:23:27;;;;;;;8.47;3.23;;;16.50;99.90;;;;;;5019373;28;20512;-52
2022/07/09 08:25:54;;;;;;;5.23;2.43;;;16.70;99.90;;;;;;5014569;28;20487;-52
2022/07/09 08:28:20;;;;;;;7.40;2.93;;;16.70;99.90;;;;;;5015397;28;20463;-52
2022/07/09 08:30:48;;;;;;;3.17;2.87;;;16.70;99.90;;;;;;5017762;28;20495;-52
2022/07/09 08:33:15;;;;;;;5.67;3.00;;;16.80;99.90;;;;;;5015414;28;20463;-53
2022/07/09 08:35:42;;;;;;;7.70;3.20;;;16.80;99.90;;;;;;5015505;28;20487;-53
2022/07/09 08:38:08;;;;;;;12.03;3.20;;;16.90;99.90;;;;;;5015933;28;20495;-53
2022/07/09 08:40:37;;;;;;;5.83;3.00;;;16.80;99.90;;;;;;5015191;28;20495;-52
2022/07/09 08:43:04;;;;;;;7.40;3.20;;;16.80;99.90;;;;;;5008446;28;20857;-53
2022/07/09 08:45:31;;;;;;;6.43;3.00;;;16.80;99.90;;;;;;5013428;28;20587;-53
2022/07/09 08:48:02;;;;;;;4.53;2.60;;;16.70;99.90;;;;;;5022793;28;20459;-52
2022/07/09 08:50:28;;;;;;;4.53;2.30;;;16.70;99.90;;;;;;5021856;28;20467;-53
2022/07/09 08:52:56;;;;;;;3.73;2.30;;;16.60;99.90;;;;;;5019405;28;20856;-53
2022/07/09 08:55:23;;;;;;;7.73;2.33;;;16.60;99.90;;;;;;5019456;28;21193;-52
2022/07/09 08:57:51;;;;;;;10.13;2.90;;;16.60;99.90;;;;;;5023396;28;20458;-52
2022/07/09 09:00:18;;;;;;;5.83;2.60;;;16.60;99.90;;;;;;5018463;28;20538;-51
2022/07/09 09:02:44;;;;;;;7.13;2.87;;;16.60;99.90;;;;;;5017262;28;20502;-53
2022/07/09 09:05:14;;;;;;;5.80;2.90;;;16.50;99.90;;;;;;5012074;28;20538;-52
2022/07/09 09:07:41;;;;;;;7.83;2.97;;;16.50;99.90;;;;;;5021683;28;20521;-53
2022/07/09 09:10:08;;;;;;;5.77;2.47;;;16.40;99.90;;;;;;5025299;28;20533;-52
2022/07/09 09:12:35;;;;;;;4.77;2.60;;;16.30;88.80;;;;;;5022705;28;20518;-52
2022/07/09 09:15:05;;;;;;;4.93;2.67;;;16.10;53.90;;;;;;5026023;28;20487;-52
2022/07/09 09:17:32;;;;;;;8.37;4.07;;;15.90;37.30;;;;;;5014228;28;20466;-52
2022/07/09 09:19:59;;;;;;;4.00;2.80;;;15.70;99.90;;;;;;5021160;28;20495;-52
2022/07/09 09:22:27;;;;;;;6.03;3.80;;;15.60;99.90;;;;;;5021794;28;20472;-53
2022/07/09 09:24:53;;;;;;;9.90;4.40;;;15.50;99.90;;;;;;5026392;28;20557;-53
2022/07/09 09:27:29;;;;;;;9.20;4.00;;;15.50;99.90;;;;;;5019472;28;20458;-53
2022/07/09 09:29:59;;;;;;;4.20;3.20;;;15.40;99.90;;;;;;5023317;28;20684;-53
2022/07/09 09:32:26;;;;;;;4.50;3.00;;;15.30;99.90;;;;;;5019241;28;20546;-53
2022/07/09 09:34:53;;;;;;;12.90;3.10;;;15.40;99.90;;;;;;5026504;28;20482;-52
2022/07/09 09:37:28;;;;;;;9.00;4.40;;;15.40;99.90;;;;;;5017934;28;20519;-52
2022/07/09 09:39:55;;;;;;;4.90;2.97;;;15.40;99.90;;;;;;5019858;28;20888;-53
2022/07/09 09:42:24;;;;;;;10.50;3.23;;;15.50;99.90;;;;;;5018797;28;20998;-52
2022/07/09 09:44:51;;;;;;;7.17;3.77;;;15.60;99.90;;;;;;5032715;28;20489;-53
2022/07/09 09:47:22;;;;;;;8.10;4.07;;;15.70;99.90;;;;;;5026947;28;20968;-53
2022/07/09 09:49:49;;;;;;;6.30;3.73;;;15.90;99.90;;;;;;5026140;28;20832;-53
2022/07/09 09:52:17;;;;;;;8.07;3.40;;;16.00;99.90;;;;;;5026118;28;20981;-52
2022/07/09 09:54:47;;;;;;;6.70;4.23;;;16.00;99.90;;;;;;5024130;28;20494;-53
2022/07/09 09:57:14;;;;;;;7.40;3.90;;;16.00;99.90;;;;;;5007129;28;20459;-52
2022/07/09 09:59:44;;;;;;;8.50;3.63;;;16.10;99.90;;;;;;5015896;28;20765;-53
2022/07/09 10:02:11;;;;;;;5.90;3.63;;;16.10;99.90;;;;;;5014434;28;21132;-53
2022/07/09 10:04:39;;;;;;;4.20;3.87;;;16.20;99.90;;;;;;5021913;28;20512;-53
2022/07/09 10:07:08;;;;;;;6.40;3.70;;;16.20;99.90;;;;;;5023638;28;20568;-53
2022/07/09 10:09:35;;;;;;;4.17;3.43;;;16.20;99.90;;;;;;5025928;28;20532;-54
2022/07/09 10:12:04;;;;;;;6.07;3.70;;;16.20;99.90;;;;;;5020582;28;20467;-54
2022/07/09 10:14:32;;;;;;;5.70;3.90;;;16.30;99.90;;;;;;5021022;28;20482;-54
2022/07/09 10:17:10;;;;;;;4.77;4.03;;;16.40;99.90;;;;;;5020471;28;20549;-52
2022/07/09 10:19:38;;;;;;;6.77;3.83;;;16.50;1.40;;;;;;5032183;28;20460;-51
2022/07/09 10:22:05;;;;;;;3.53;3.10;;;16.60;99.90;;;;;;5019912;28;20466;-52
2022/07/09 10:24:34;;;;;;;4.13;3.60;;;16.60;99.90;;;;;;5018459;28;20537;-53
2022/07/09 10:27:07;;;;;;;7.90;4.47;;;16.70;99.90;;;;;;5021699;28;20503;-54
2022/07/09 10:29:34;;;;;;;8.60;4.23;;;16.80;99.90;;;;;;5026614;28;20514;-53
2022/07/09 10:32:02;;;;;;;6.00;3.37;;;16.90;99.90;;;;;;5016507;28;20460;-53
2022/07/09 10:34:43;;;;;;;8.20;4.10;;;17.20;99.90;;;;;;5016918;28;20479;-54
2022/07/09 10:37:10;;;;;;;7.07;4.07;;;17.40;99.90;;;;;;5021276;28;20862;-53
2022/07/09 10:39:37;;;;;;;12.70;4.17;;;17.60;99.90;;;;;;5026810;28;20782;-53
2022/07/09 10:42:07;;;;;;;10.13;4.30;;;17.80;99.90;;;;;;5025875;28;21047;-53
2022/07/09 10:44:37;;;;;;;7.33;3.70;;;17.90;99.90;;;;;;5029029;28;20543;-55
2022/07/09 10:47:05;;;;;;;6.90;3.10;;;18.20;50.80;;;;;;5017478;28;20492;-54
2022/07/09 10:49:34;;;;;;;7.00;3.00;;;18.10;87.00;;;;;;5021269;28;20566;-53
2022/07/09 10:52:01;;;;;;;9.70;3.40;;;18.00;99.90;;;;;;5029755;28;20550;-53
2022/07/09 10:54:28;;;;;;;4.90;3.43;;;18.10;99.90;;;;;;5015962;28;20564;-55
2022/07/09 10:56:55;;;;;;;8.37;3.40;;;18.20;94.90;;;;;;5019610;28;20524;-54
2022/07/09 10:59:23;;;;;;;6.07;2.67;;;18.30;99.90;;;;;;5021338;28;20491;-53
2022/07/09 11:01:51;;;;;;;5.27;2.67;;;18.40;99.90;;;;;;5028120;28;20463;-53
2022/07/09 11:04:29;;;;;;;3.13;2.83;;;18.30;99.90;;;;;;5017951;28;20491;-54
2022/07/09 11:06:56;;;;;;;5.03;2.57;;;18.40;99.90;;;;;;5019942;28;20470;-55
2022/07/09 11:09:25;;;;;;;3.13;2.37;;;18.40;99.90;;;;;;5028352;28;20464;-54
2022/07/09 11:11:52;;;;;;;6.33;2.20;;;18.40;99.90;;;;;;5026477;28;20533;-54
2022/07/09 11:14:19;;;;;;;3.30;2.20;;;18.60;99.90;;;;;;5035485;28;20470;-55
2022/07/09 11:16:56;;;;;;;6.13;2.53;;;18.80;99.90;;;;;;5033083;28;20490;-54
2022/07/09 11:19:23;;;;;;;4.90;2.13;;;18.80;99.90;;;;;;5028870;28;20463;-53
2022/07/09 11:21:50;;;;;;;3.50;2.63;;;18.70;99.90;;;;;;5022421;28;20483;-53
2022/07/09 11:24:18;;;;;;;3.37;2.00;;;18.60;99.90;;;;;;5030783;28;20483;-53
2022/07/09 11:26:46;;;;;;;3.93;2.10;;;18.60;99.90;;;;;;5032211;28;20490;-54
2022/07/09 11:29:13;;;;;;;4.00;2.27;;;18.60;99.90;;;;;;5029724;28;20467;-54
2022/07/09 11:31:47;;;;;;;4.00;2.23;;;18.50;99.90;;;;;;5022441;28;20462;-54
2022/07/09 11:34:16;;;;;;;7.80;1.87;;;18.60;99.90;;;;;;5024753;28;20867;-54
2022/07/09 11:36:44;;;;;;;10.03;2.70;;;18.60;99.90;;;;;;5032520;28;20508;-53
2022/07/09 11:39:21;;;;;;;4.17;1.90;;;18.60;99.90;;;;;;5029501;28;20467;-54
2022/07/09 11:41:48;;;;;;;2.40;2.00;;;18.60;99.90;;;;;;5026331;28;20544;-54
2022/07/09 11:44:21;;;;;;;2.20;2.00;;;18.60;99.90;;;;;;5030671;28;20539;-54
2022/07/09 11:47:02;;;;;;;7.40;2.40;;;18.60;99.90;;;;;;5030114;28;20454;-54
2022/07/09 11:49:38;;;;;;;3.13;1.90;;;18.50;99.90;;;;;;5032586;28;20463;-54
2022/07/09 11:52:06;;;;;;;2.57;1.77;;;18.50;95.20;;;;;;5028447;28;20523;-55
2022/07/09 11:54:32;;;;;;;4.93;2.70;;;18.50;99.90;;;;;;5030550;28;20560;-54
2022/07/09 11:56:59;;;;;;;3.97;2.47;;;18.40;99.90;;;;;;5028947;28;20463;-54
2022/07/09 11:59:27;;;;;;;3.17;1.73;;;18.40;99.90;;;;;;5028482;28;20860;-54
2022/07/09 12:01:55;;;;;;;5.57;2.10;;;18.40;99.90;;;;;;5029717;28;20548;-53
2022/07/09 12:04:22;;;;;;;3.00;2.10;;;18.30;99.90;;;;;;5029799;28;21019;-52
2022/07/09 12:06:51;;;;;;;3.90;2.33;;;18.30;99.90;;;;;;5034489;28;20466;-53
2022/07/09 12:09:28;;;;;;;4.47;2.13;;;18.30;99.90;;;;;;5036474;28;20470;-53
2022/07/09 12:11:55;;;;;;;3.60;2.70;;;18.10;99.90;;;;;;5031987;28;20481;-53
2022/07/09 12:14:21;;;;;;;3.10;2.50;;;17.70;99.90;;;;;;5032919;28;20513;-53
2022/07/09 12:16:48;;;;;;;11.93;2.70;;;17.50;86.10;;;;;;5032983;28;22221;-54
2022/07/09 12:19:15;;;;;;;2.70;2.50;;;17.30;37.20;;;;;;5027195;28;20801;-53
2022/07/09 12:21:41;;;;;;;5.60;2.77;;;17.20;30.00;;;;;;5031379;28;20466;-54
2022/07/09 12:24:09;;;;;;;15.47;2.87;;;17.10;99.90;;;;;;5039514;28;20506;-53
2022/07/09 12:26:36;;;;;;;3.37;2.70;;;17.10;99.90;;;;;;5036445;28;20547;-53
2022/07/09 12:29:03;;;;;;;3.90;2.43;;;17.10;99.90;;;;;;5032683;28;20458;-53
2022/07/09 12:31:30;;;;;;;8.13;2.50;;;17.10;99.90;;;;;;5032511;28;20529;-54
2022/07/09 12:37:18;;;;;;;6.00;3.63;;;17.20;99.90;;;;;;5020423;28;20468;-53
2022/07/09 12:39:46;;;;;;;3.43;2.30;;;17.10;99.90;;;;;;5030199;28;20518;-54
2022/07/09 12:42:13;;;;;;;2.30;2.10;;;17.20;99.90;;;;;;5031815;28;20513;-54
2022/07/09 12:44:40;;;;;;;3.63;2.67;;;17.20;99.90;;;;;;5032316;28;20473;-53
2022/07/09 12:47:06;;;;;;;6.53;3.10;;;17.30;99.90;;;;;;5038858;28;20492;-54
2022/07/09 12:49:33;;;;;;;4.40;2.67;;;17.30;99.90;;;;;;5031827;28;20455;-54